Time;durP1;ratioP1;P1;durP2;ratioP2;P2;SDS_P1;SDS_P2;PMS_P1;PMS_P2;Temp;Humidity;BMP_temperature;BMP_pressure;BME280_temperature;BME280_humidity;BME280_pressure;Samples;Min_cycle;Max_cycle;Signal;HPM_P1;HPM_P2
2021/05/24 00:01:55;;;;;;;4.93;1.50;;;;;;;12.69;52.87;95264.06;6939828;28;20490;-72
2021/05/24 00:05:22;;;;;;;4.23;1.30;;;;;;;12.67;53.13;95272.22;6952026;28;20227;-72
2021/05/24 00:08:42;;;;;;;1.50;1.07;;;;;;;12.66;53.17;95267.88;6953018;28;20863;-74
2021/05/24 00:12:04;;;;;;;3.47;1.07;;;;;;;12.63;53.63;95265.50;6945718;28;20245;-73
2021/05/24 00:15:29;;;;;;;3.83;1.10;;;;;;;12.61;53.58;95245.34;6954398;28;20235;-73
2021/05/24 00:18:51;;;;;;;2.47;0.90;;;;;;;12.62;54.02;95239.03;6941573;28;20219;-73
2021/05/24 00:22:11;;;;;;;4.43;1.50;;;;;;;12.59;54.04;95236.63;6953365;28;20231;-73
2021/05/24 00:25:32;;;;;;;3.23;1.40;;;;;;;12.45;54.40;95236.16;6959540;28;20218;-73
2021/05/24 00:28:53;;;;;;;2.87;1.10;;;;;;;12.42;54.55;95236.44;6951643;28;20580;-74
2021/05/24 00:32:16;;;;;;;2.60;1.23;;;;;;;12.44;54.40;95244.28;6963971;28;20226;-73
2021/05/24 00:35:36;;;;;;;4.33;1.30;;;;;;;12.45;54.26;95240.66;6973210;28;20254;-73
2021/05/24 00:38:57;;;;;;;2.63;1.07;;;;;;;12.43;54.33;95227.47;6961371;28;20247;-72
2021/05/24 00:42:17;;;;;;;2.57;1.30;;;;;;;12.42;54.44;95247.09;6960024;28;20232;-72
2021/05/24 00:45:41;;;;;;;4.20;1.07;;;;;;;12.41;54.67;95241.94;6961353;28;20214;-73
2021/05/24 00:49:02;;;;;;;3.27;1.20;;;;;;;12.36;54.83;95234.38;6969784;28;20230;-74
2021/05/24 00:52:27;;;;;;;1.73;1.20;;;;;;;12.35;55.24;95226.53;6960790;28;20219;-72
2021/05/24 00:55:49;;;;;;;3.47;1.40;;;;;;;12.27;55.33;95229.91;6970073;28;20755;-73
2021/05/24 00:59:10;;;;;;;3.30;1.00;;;;;;;12.17;55.80;95225.66;6955118;28;20267;-74
2021/05/24 01:02:30;;;;;;;4.70;1.50;;;;;;;12.17;55.72;95223.00;6943207;28;20298;-75
2021/05/24 01:05:51;;;;;;;5.73;1.60;;;;;;;12.14;56.26;95205.47;6940233;28;20220;-73
2021/05/24 01:09:14;;;;;;;4.33;1.70;;;;;;;12.14;56.42;95205.47;6968526;28;20306;-72
2021/05/24 01:12:35;;;;;;;2.30;1.53;;;;;;;12.11;56.81;95195.13;6956473;28;20225;-73
2021/05/24 01:15:57;;;;;;;5.33;1.40;;;;;;;12.10;57.10;95200.59;6955218;28;20218;-72
2021/05/24 01:19:21;;;;;;;2.90;1.30;;;;;;;12.08;56.92;95195.41;6970490;28;20215;-72
2021/05/24 01:22:48;;;;;;;3.50;1.40;;;;;;;12.03;57.23;95193.19;6971529;28;20230;-71
2021/05/24 01:26:09;;;;;;;3.40;1.30;;;;;;;11.99;57.11;95197.13;6966518;28;20265;-73
2021/05/24 01:29:32;;;;;;;1.80;1.23;;;;;;;11.98;57.42;95194.59;6970572;28;20215;-73
2021/05/24 01:32:52;;;;;;;4.50;1.40;;;;;;;11.94;57.46;95187.91;6949472;28;20231;-74
2021/05/24 01:36:13;;;;;;;3.93;1.70;;;;;;;11.92;57.42;95176.59;6967548;28;20273;-72
2021/05/24 01:39:33;;;;;;;4.10;1.33;;;;;;;11.88;57.44;95169.84;6953844;28;20688;-74
2021/05/24 01:43:00;;;;;;;3.30;1.50;;;;;;;11.83;57.68;95169.44;6969159;28;20618;-74
2021/05/24 01:46:20;;;;;;;1.77;1.30;;;;;;;11.82;57.85;95173.94;6966331;28;20681;-73
2021/05/24 01:49:47;;;;;;;2.60;1.07;;;;;;;11.82;57.68;95167.81;6958404;28;20722;-73
2021/05/24 01:53:07;;;;;;;2.07;1.10;;;;;;;11.80;57.65;95175.91;6973684;28;20250;-73
2021/05/24 01:56:27;;;;;;;1.93;1.30;;;;;;;11.78;57.78;95169.88;6973086;28;20279;-72
2021/05/24 01:59:48;;;;;;;2.57;1.40;;;;;;;11.76;57.62;95165.72;6950548;28;20210;-74
2021/05/24 02:03:09;;;;;;;2.43;1.13;;;;;;;11.74;57.85;95155.22;6935306;28;20235;-73
2021/05/24 02:06:35;;;;;;;5.33;1.20;;;;;;;11.68;58.27;95149.59;6954873;28;20271;-73
2021/05/24 02:09:58;;;;;;;5.87;1.37;;;;;;;11.67;58.17;95158.59;6952640;28;20222;-73
2021/05/24 02:13:22;;;;;;;6.10;1.17;;;;;;;11.59;58.44;95149.50;6965218;28;20277;-73
2021/05/24 02:16:45;;;;;;;2.20;1.30;;;;;;;11.60;58.22;95153.00;6958095;28;20250;-72
2021/05/24 02:20:08;;;;;;;2.47;1.33;;;;;;;11.60;58.35;95139.69;6957960;28;20222;-72
2021/05/24 02:23:29;;;;;;;5.30;1.60;;;;;;;11.56;58.35;95136.50;6953599;28;20207;-72
2021/05/24 02:26:49;;;;;;;4.40;1.43;;;;;;;11.53;58.55;95146.56;6980987;28;20254;-73
2021/05/24 02:30:11;;;;;;;3.87;1.53;;;;;;;11.49;58.48;95154.00;6952251;28;20753;-73
2021/05/24 02:33:32;;;;;;;3.50;1.60;;;;;;;11.47;58.94;95134.69;6955481;28;20272;-73
2021/05/24 02:36:52;;;;;;;3.17;1.10;;;;;;;11.46;58.82;95127.72;6959886;28;20362;-72
2021/05/24 02:40:15;;;;;;;3.17;1.20;;;;;;;11.44;58.93;95134.13;6967924;28;20698;-72
2021/05/24 02:43:35;;;;;;;1.93;1.20;;;;;;;11.43;59.08;95125.31;6956152;28;20222;-73
2021/05/24 02:46:56;;;;;;;2.60;1.17;;;;;;;11.44;59.43;95126.16;6964359;28;20226;-72
2021/05/24 02:50:22;;;;;;;2.10;1.17;;;;;;;11.37;59.51;95120.56;6938011;28;20306;-73
2021/05/24 02:53:45;;;;;;;4.07;1.70;;;;;;;11.35;59.74;95125.22;6972382;28;20287;-72
2021/05/24 02:57:06;;;;;;;2.50;1.10;;;;;;;11.33;59.82;95105.91;6968975;28;20223;-73
2021/05/24 03:00:26;;;;;;;2.97;1.40;;;;;;;11.35;60.06;95116.41;6950693;28;20859;-73
2021/05/24 03:03:53;;;;;;;2.13;1.27;;;;;;;11.32;59.66;95100.72;6957710;28;20587;-73
2021/05/24 03:07:16;;;;;;;4.27;1.13;;;;;;;11.30;59.68;95108.84;6943440;28;20218;-71
2021/05/24 03:10:39;;;;;;;2.73;1.40;;;;;;;11.28;59.78;95102.84;6947096;28;20238;-73
2021/05/24 03:13:59;;;;;;;3.33;1.30;;;;;;;11.28;59.90;95113.47;6956751;28;20228;-72
2021/05/24 03:17:20;;;;;;;2.47;1.23;;;;;;;11.28;59.63;95102.00;6929745;28;20644;-73
2021/05/24 03:20:40;;;;;;;3.23;1.40;;;;;;;11.26;59.90;95103.97;6968842;28;20226;-72
2021/05/24 03:24:01;;;;;;;2.23;1.20;;;;;;;11.26;60.03;95098.66;6948585;28;20315;-72
2021/05/24 03:27:21;;;;;;;3.13;1.60;;;;;;;11.25;60.22;95112.94;6958401;28;20219;-72
2021/05/24 03:30:44;;;;;;;2.33;1.40;;;;;;;11.22;59.82;95115.88;6969196;28;20226;-73
2021/05/24 03:34:07;;;;;;;4.17;1.83;;;;;;;11.12;60.79;95114.06;6940560;28;20223;-72
2021/05/24 03:37:27;;;;;;;2.23;1.33;;;;;;;11.10;60.59;95110.72;6940487;28;20234;-72
2021/05/24 03:40:52;;;;;;;4.37;1.30;;;;;;;11.10;60.66;95109.88;6960496;28;20217;-72
2021/05/24 03:44:13;;;;;;;4.47;1.37;;;;;;;11.08;60.51;95104.69;6947753;28;20249;-72
2021/05/24 03:47:33;;;;;;;4.37;1.43;;;;;;;11.03;60.97;95109.59;6961002;28;20207;-73
2021/05/24 03:50:53;;;;;;;2.47;1.40;;;;;;;10.98;60.76;95118.97;6938726;28;20218;-73
2021/05/24 03:54:14;;;;;;;2.40;1.33;;;;;;;10.95;61.08;95124.59;6966089;28;20297;-72
2021/05/24 03:57:34;;;;;;;2.97;1.63;;;;;;;10.95;60.92;95114.81;6959646;28;20689;-73
2021/05/24 04:00:55;;;;;;;2.60;1.30;;;;;;;10.94;61.25;95120.25;6946982;28;20219;-72
2021/05/24 04:04:15;;;;;;;3.13;1.30;;;;;;;10.95;61.26;95111.31;6960773;28;20734;-73
2021/05/24 04:07:40;;;;;;;3.50;1.50;;;;;;;10.95;61.42;95121.94;6957028;28;20225;-72
2021/05/24 04:11:02;;;;;;;2.40;1.30;;;;;;;10.92;61.35;95133.66;6945206;28;20281;-72
2021/05/24 04:14:22;;;;;;;2.97;1.30;;;;;;;10.92;61.12;95132.81;6949118;28;20602;-73
2021/05/24 04:17:45;;;;;;;3.47;1.53;;;;;;;10.93;61.61;95126.53;6958257;28;20689;-73
2021/05/24 04:21:08;;;;;;;4.03;1.20;;;;;;;10.95;61.61;95135.22;6958843;28;20294;-73
2021/05/24 04:24:28;;;;;;;1.77;1.30;;;;;;;10.95;61.38;95127.25;6965266;28;20301;-71
2021/05/24 04:27:48;;;;;;;5.20;1.30;;;;;;;10.96;61.62;95129.78;6980664;28;20299;-73
2021/05/24 04:31:09;;;;;;;2.27;1.30;;;;;;;10.93;62.13;95119.41;6969988;28;20264;-72
2021/05/24 04:34:29;;;;;;;2.13;1.60;;;;;;;10.90;62.38;95119.69;6961630;28;20227;-72
2021/05/24 04:37:50;;;;;;;2.77;1.47;;;;;;;10.91;62.43;95112.56;6941503;28;20234;-74
2021/05/24 04:41:10;;;;;;;4.17;1.40;;;;;;;10.91;62.36;95121.38;6948832;28;20294;-74
2021/05/24 04:44:33;;;;;;;2.97;1.23;;;;;;;10.94;62.85;95117.59;6938906;28;20254;-74
2021/05/24 04:47:54;;;;;;;2.60;1.80;;;;;;;10.94;62.86;95106.97;6950775;28;20294;-73
2021/05/24 04:51:14;;;;;;;3.43;2.30;;;;;;;10.96;62.72;95105.84;6948094;28;20226;-73
2021/05/24 04:54:34;;;;;;;2.97;1.37;;;;;;;10.96;62.83;95110.31;6930865;28;20219;-74
2021/05/24 04:57:55;;;;;;;3.23;1.20;;;;;;;10.99;62.81;95112.69;6930292;28;20238;-72
2021/05/24 05:01:16;;;;;;;2.63;1.40;;;;;;;11.02;63.56;95117.72;6948873;28;20818;-73
2021/05/24 05:04:36;;;;;;;2.50;1.60;;;;;;;11.04;63.25;95111.28;6930622;28;21006;-73
2021/05/24 05:07:56;;;;;;;2.67;1.73;;;;;;;11.07;63.46;95095.03;6928204;28;20219;-74
2021/05/24 05:11:21;;;;;;;6.87;4.27;;;;;;;11.09;63.39;95094.91;6957535;28;20230;-74
2021/05/24 05:14:44;;;;;;;7.20;4.47;;;;;;;11.09;63.42;95090.44;6952748;28;20257;-73
2021/05/24 05:18:05;;;;;;;4.93;2.57;;;;;;;11.07;63.59;95087.06;6962506;28;20214;-73
2021/05/24 05:21:25;;;;;;;3.50;2.57;;;;;;;11.06;63.54;95079.28;6955521;28;20214;-73
2021/05/24 05:24:48;;;;;;;3.30;2.10;;;;;;;11.01;63.91;95092.97;6958833;28;20233;-72
2021/05/24 05:28:10;;;;;;;2.53;1.43;;;;;;;11.02;64.27;95096.44;6957427;28;20280;-72
2021/05/24 05:31:31;;;;;;;3.50;1.87;;;;;;;11.01;64.30;95084.16;6960374;28;20210;-73
2021/05/24 05:34:53;;;;;;;3.00;1.80;;;;;;;11.01;64.72;95095.63;6955660;28;20233;-73
2021/05/24 05:38:15;;;;;;;3.30;1.83;;;;;;;11.03;64.51;95083.03;6954376;28;20226;-74
2021/05/24 05:41:35;;;;;;;4.80;2.10;;;;;;;11.04;64.49;95086.53;6953418;28;20869;-72
2021/05/24 05:44:56;;;;;;;4.73;2.80;;;;;;;11.07;65.12;95086.22;6940881;28;20676;-72
2021/05/24 05:48:19;;;;;;;4.93;2.43;;;;;;;11.13;64.74;95083.00;6980037;28;20348;-72
2021/05/24 05:51:40;;;;;;;4.63;2.50;;;;;;;11.18;64.38;95073.63;6975536;28;20290;-72
2021/05/24 05:55:02;;;;;;;3.50;2.27;;;;;;;11.26;64.18;95078.25;6958656;28;20665;-73
2021/05/24 05:58:24;;;;;;;3.47;2.33;;;;;;;11.32;64.17;95074.13;6950952;28;20687;-73
2021/05/24 06:01:45;;;;;;;2.37;2.13;;;;;;;11.35;64.36;95079.19;6965696;28;20413;-72
2021/05/24 06:05:06;;;;;;;3.63;1.60;;;;;;;11.39;64.66;95083.22;6958955;28;20216;-72
2021/05/24 06:08:29;;;;;;;3.63;1.57;;;;;;;11.42;64.66;95082.91;6957135;28;20217;-72
2021/05/24 06:11:52;;;;;;;3.20;1.93;;;;;;;11.42;65.28;95081.09;6947148;28;20226;-72
2021/05/24 06:15:16;;;;;;;2.07;1.60;;;;;;;11.44;65.25;95084.47;6946996;28;20314;-74
2021/05/24 06:18:36;;;;;;;3.93;1.83;;;;;;;11.46;64.99;95081.66;6948357;28;20227;-72
2021/05/24 06:21:59;;;;;;;5.70;2.90;;;;;;;11.50;65.13;95083.88;6936911;28;20224;-72
2021/05/24 06:25:20;;;;;;;4.43;2.33;;;;;;;11.53;65.18;95077.41;6949354;28;20220;-72
2021/05/24 06:28:40;;;;;;;4.40;2.30;;;;;;;11.56;65.52;95077.16;6931147;28;20235;-72
2021/05/24 06:32:01;;;;;;;2.93;2.20;;;;;;;11.63;65.48;95071.09;6938814;28;20219;-72
2021/05/24 06:35:24;;;;;;;4.77;2.20;;;;;;;11.74;65.59;95079.88;6950837;28;20361;-72
2021/05/24 06:38:44;;;;;;;4.33;2.30;;;;;;;11.83;65.56;95079.00;6948447;28;20239;-72
2021/05/24 06:42:06;;;;;;;4.83;2.30;;;;;;;11.91;65.50;95087.09;6936195;28;20223;-72
2021/05/24 06:45:30;;;;;;;3.93;1.90;;;;;;;12.00;65.38;95081.72;6952764;28;20343;-69
2021/05/24 06:48:51;;;;;;;5.40;1.93;;;;;;;12.07;65.14;95089.13;6954804;28;20223;-72
2021/05/24 06:52:11;;;;;;;3.70;1.97;;;;;;;12.09;65.40;95087.97;6948136;28;20219;-71
2021/05/24 06:55:32;;;;;;;3.50;2.00;;;;;;;12.15;65.30;95082.03;6952579;28;20230;-72
2021/05/24 06:58:52;;;;;;;3.60;1.83;;;;;;;12.22;65.12;95088.44;6944796;28;20302;-72
2021/05/24 07:02:15;;;;;;;2.50;1.80;;;;;;;12.30;65.17;95079.69;6953482;28;20223;-73
2021/05/24 07:05:35;;;;;;;2.43;1.80;;;;;;;12.39;65.21;95081.44;6951023;28;20221;-72
2021/05/24 07:08:58;;;;;;;1.53;1.43;;;;;;;12.47;65.46;95098.34;6951535;28;20219;-72
2021/05/24 07:12:19;;;;;;;4.10;1.30;;;;;;;12.57;65.46;95094.78;6957166;28;20765;-72
2021/05/24 07:15:39;;;;;;;2.37;1.53;;;;;;;12.60;65.13;95084.66;6958293;28;20226;-73
2021/05/24 07:19:03;;;;;;;3.70;1.80;;;;;;;12.67;65.18;95095.56;6947724;28;20675;-72
2021/05/24 07:22:24;;;;;;;2.17;1.70;;;;;;;12.66;64.90;95086.72;6934550;28;20261;-73
2021/05/24 07:25:44;;;;;;;3.60;2.23;;;;;;;12.67;65.00;95088.41;6941878;28;20215;-72
2021/05/24 07:29:05;;;;;;;1.93;1.53;;;;;;;12.69;64.93;95077.56;6923044;28;20731;-72
2021/05/24 07:32:25;;;;;;;5.03;1.67;;;;;;;12.70;64.60;95087.25;6924986;28;20219;-72
2021/05/24 07:35:45;;;;;;;2.23;1.67;;;;;;;12.73;64.65;95089.59;6922971;28;20314;-72
2021/05/24 07:39:06;;;;;;;2.80;1.63;;;;;;;12.76;64.71;95079.50;6925991;28;20220;-73
2021/05/24 07:42:26;;;;;;;3.47;1.30;;;;;;;12.78;64.60;95077.50;6942915;28;20644;-71
2021/05/24 07:45:47;;;;;;;3.43;1.40;;;;;;;12.87;65.12;95073.09;6946311;28;20617;-72
2021/05/24 07:49:09;;;;;;;1.60;1.03;;;;;;;12.98;65.12;95074.63;6939948;28;20219;-72
2021/05/24 07:52:34;;;;;;;2.43;1.50;;;;;;;13.15;65.86;95055.16;6957112;28;20298;-74
2021/05/24 07:55:55;;;;;;;3.20;1.40;;;;;;;13.32;65.64;95059.59;6944000;28;20223;-74
2021/05/24 07:59:15;;;;;;;1.90;1.67;;;;;;;13.48;65.57;95045.53;6952588;28;20239;-74
2021/05/24 08:02:45;;;;;;;4.40;1.43;;;;;;;13.60;64.83;95042.41;6940714;28;20243;-72
2021/05/24 08:06:06;;;;;;;4.83;1.67;;;;;;;13.68;64.60;95041.63;6956898;28;20222;-73
2021/05/24 08:09:28;;;;;;;3.83;1.40;;;;;;;13.78;64.68;95036.16;6955230;28;20226;-72
2021/05/24 08:12:51;;;;;;;1.60;1.20;;;;;;;13.86;64.63;95033.50;6951431;28;20222;-72
2021/05/24 08:16:13;;;;;;;3.13;1.53;;;;;;;13.96;64.83;95032.38;6961605;28;20310;-73
2021/05/24 08:19:34;;;;;;;3.63;1.40;;;;;;;14.04;65.04;95032.41;6960432;28;20226;-72
2021/05/24 08:22:54;;;;;;;2.13;1.37;;;;;;;14.15;65.01;95021.41;6965705;28;20227;-72
2021/05/24 08:26:17;;;;;;;2.43;1.40;;;;;;;14.25;64.61;95015.94;6964847;28;20318;-72
2021/05/24 08:29:37;;;;;;;3.40;1.40;;;;;;;14.34;64.19;95014.09;6946384;28;20223;-72
2021/05/24 08:32:58;;;;;;;2.60;1.40;;;;;;;14.38;63.89;95011.00;6960727;28;20250;-72
2021/05/24 08:36:18;;;;;;;2.20;1.10;;;;;;;14.47;63.65;95017.16;6958051;28;20227;-71
2021/05/24 08:39:39;;;;;;;3.60;1.40;;;;;;;14.53;63.98;95014.69;6950925;28;20269;-72
2021/05/24 08:43:03;;;;;;;2.63;1.30;;;;;;;14.64;64.31;95018.03;6960812;28;20223;-72
2021/05/24 08:46:28;;;;;;;2.67;1.60;;;;;;;14.69;63.03;95010.31;6950572;28;20659;-72
2021/05/24 08:49:48;;;;;;;2.70;1.73;;;;;;;14.73;62.86;95014.34;6925611;28;20214;-71
2021/05/24 08:53:10;;;;;;;3.13;1.50;;;;;;;14.78;62.96;95001.31;6952329;28;20214;-71
2021/05/24 08:56:30;;;;;;;2.80;2.10;;;;;;;14.83;63.11;95002.50;6933032;28;20231;-73
2021/05/24 08:59:54;;;;;;;3.03;1.83;;;;;;;14.88;62.96;95005.50;6958794;28;20302;-72
2021/05/24 09:03:23;;;;;;;3.30;1.90;;;;;;;14.89;63.28;95009.81;6930064;28;20246;-72
2021/05/24 09:06:44;;;;;;;1.93;1.57;;;;;;;14.84;63.45;95000.63;6948643;28;20791;-72
2021/05/24 09:10:08;;;;;;;1.57;1.47;;;;;;;14.87;63.42;95009.16;6946215;28;20315;-67
2021/05/24 09:13:31;;;;;;;3.03;2.70;;;;;;;14.92;63.38;95001.47;6944361;28;20343;-72
2021/05/24 09:17:00;;;;;;;4.00;2.37;;;;;;;14.99;63.46;94998.94;6934821;28;20228;-72
2021/05/24 09:20:20;;;;;;;2.47;1.87;;;;;;;15.00;63.20;94993.44;6963664;28;20239;-73
2021/05/24 09:23:43;;;;;;;3.03;2.00;;;;;;;14.98;62.88;94999.97;6967883;28;20242;-72
2021/05/24 09:27:06;;;;;;;1.93;1.60;;;;;;;14.99;63.29;95006.97;6954495;28;20216;-73
2021/05/24 09:30:29;;;;;;;3.57;1.40;;;;;;;14.98;63.10;94994.63;6949232;28;20590;-72
2021/05/24 09:33:54;;;;;;;3.53;1.80;;;;;;;15.00;62.98;95001.44;6925712;28;20273;-72
2021/05/24 09:37:16;;;;;;;2.47;2.00;;;;;;;15.01;62.86;94991.59;6955945;28;20230;-71
2021/05/24 09:40:40;;;;;;;3.57;1.60;;;;;;;15.02;62.93;94975.41;6959907;28;20637;-70
2021/05/24 09:44:00;;;;;;;3.73;2.07;;;;;;;15.09;63.27;94969.38;6973214;28;20215;-73
2021/05/24 09:47:41;;;;;;;3.87;2.57;;;;;;;15.15;63.92;94956.13;6974388;28;20297;-73
2021/05/24 09:51:12;;;;;;;2.70;2.30;;;;;;;15.23;64.01;94956.13;6953156;28;20219;-72
2021/05/24 09:54:37;;;;;;;2.00;1.40;;;;;;;15.30;62.39;94951.75;6955616;28;20275;-72
2021/05/24 09:58:01;;;;;;;1.30;1.10;;;;;;;15.41;59.65;94946.03;6953544;28;20643;-72
2021/05/24 10:01:29;;;;;;;1.60;1.50;;;;;;;15.52;57.48;94944.00;6951660;28;20222;-73
2021/05/24 10:04:52;;;;;;;3.57;1.50;;;;;;;15.65;59.38;94938.91;6952131;28;20215;-72
2021/05/24 10:08:12;;;;;;;2.90;1.30;;;;;;;15.77;60.34;94929.50;6952484;28;20408;-72
2021/05/24 10:11:37;;;;;;;2.73;1.50;;;;;;;15.91;60.05;94925.22;6952067;28;20892;-71
2021/05/24 10:14:59;;;;;;;3.23;1.17;;;;;;;16.04;58.75;94930.84;6960275;28;20223;-71
2021/05/24 10:18:19;;;;;;;2.10;1.20;;;;;;;16.20;58.58;94911.97;6945919;28;20848;-71
2021/05/24 10:21:42;;;;;;;1.07;0.77;;;;;;;16.35;55.34;94904.03;6944159;28;20230;-70
2021/05/24 10:25:03;;;;;;;3.10;0.70;;;;;;;16.51;53.20;94917.25;6959873;28;20647;-71
2021/05/24 10:28:28;;;;;;;2.10;1.20;;;;;;;16.64;51.70;94907.66;6960385;28;20704;-72
2021/05/24 10:31:50;;;;;;;2.60;1.20;;;;;;;16.80;50.50;94893.22;6948990;28;20303;-71
2021/05/24 10:35:36;;;;;;;1.57;0.80;;;;;;;16.94;49.33;94892.44;6951833;28;20307;-73
2021/05/24 10:39:11;;;;;;;1.70;1.03;;;;;;;17.09;48.83;94887.09;6938270;28;20235;-72
2021/05/24 10:42:44;;;;;;;2.57;0.90;;;;;;;17.18;47.50;94888.66;6954442;28;20272;-71
2021/05/24 10:46:26;;;;;;;2.43;1.07;;;;;;;17.30;46.52;94875.59;6957465;28;20300;-71
2021/05/24 10:50:16;;;;;;;1.10;0.97;;;;;;;17.44;45.58;94867.53;6960580;28;20238;-71
2021/05/24 10:53:43;;;;;;;0.80;0.80;;;;;;;17.53;45.10;94861.03;6958019;28;20234;-71
2021/05/24 10:57:04;;;;;;;1.83;0.87;;;;;;;17.62;44.53;94869.84;6976466;28;20305;-71
2021/05/24 11:00:25;;;;;;;1.10;0.80;;;;;;;17.68;43.68;94862.88;6965313;28;20227;-71
2021/05/24 11:04:24;;;;;;;1.00;0.80;;;;;;;17.83;43.70;94859.16;6956395;28;20221;-71
2021/05/24 11:07:47;;;;;;;0.70;0.60;;;;;;;17.91;44.23;94860.88;6857605;28;20315;-71
2021/05/24 11:11:25;;;;;;;1.83;0.67;;;;;;;17.91;43.47;94855.50;6867595;28;20242;-71
2021/05/24 11:15:07;;;;;;;0.83;0.73;;;;;;;17.91;43.18;94847.44;6950649;28;20309;-71
2021/05/24 11:18:28;;;;;;;1.67;0.90;;;;;;;17.95;44.18;94854.94;6949207;28;20289;-71
2021/05/24 11:21:54;;;;;;;1.03;1.00;;;;;;;18.01;44.62;94850.63;6974542;28;20222;-74
2021/05/24 11:29:11;;;;;;;1.30;1.00;;;;;;;18.00;44.50;94855.22;6966886;28;20219;-72
2021/05/24 11:32:43;;;;;;;1.43;1.10;;;;;;;17.96;44.67;94858.44;6961511;28;20296;-71
2021/05/24 11:36:05;;;;;;;2.17;1.60;;;;;;;17.98;44.97;94859.09;6961119;28;20670;-72
2021/05/24 11:39:34;;;;;;;3.20;0.97;;;;;;;17.98;44.75;94859.94;6952122;28;20563;-71
2021/05/24 11:43:08;;;;;;;1.50;1.10;;;;;;;17.98;44.76;94856.41;6955586;28;20218;-73
2021/05/24 11:46:47;;;;;;;1.53;1.10;;;;;;;18.00;44.53;94849.00;6944653;28;20217;-72
2021/05/24 11:50:09;;;;;;;1.33;1.10;;;;;;;18.04;45.10;94852.97;6976143;28;20581;-72
2021/05/24 11:53:30;;;;;;;2.03;1.50;;;;;;;18.04;44.62;94850.28;6957349;28;20210;-72
2021/05/24 11:56:53;;;;;;;1.77;1.30;;;;;;;18.02;44.59;94855.00;6972408;28;20230;-72
2021/05/24 12:00:16;;;;;;;1.03;0.70;;;;;;;18.02;44.54;94849.63;6966538;28;20215;-72
2021/05/24 12:03:46;;;;;;;1.90;0.90;;;;;;;18.00;44.70;94857.91;6951095;28;20237;-72
2021/05/24 12:07:16;;;;;;;1.07;0.80;;;;;;;17.98;44.38;94856.41;6945557;28;20258;-72
2021/05/24 12:10:39;;;;;;;2.77;1.00;;;;;;;17.94;43.85;94845.22;6950027;28;20315;-72
2021/05/24 12:14:04;;;;;;;1.93;1.00;;;;;;;17.94;43.87;94849.75;6953782;28;20228;-73
2021/05/24 12:17:26;;;;;;;3.30;1.23;;;;;;;17.91;43.80;94845.59;6960173;28;20285;-72
2021/05/24 12:20:49;;;;;;;2.57;1.53;;;;;;;17.93;44.12;94840.88;6948140;28;20219;-72
2021/05/24 12:24:11;;;;;;;3.90;1.70;;;;;;;17.97;44.40;94828.72;6948238;28;20230;-72
2021/05/24 12:27:34;;;;;;;1.47;1.30;;;;;;;18.02;44.40;94836.19;6974512;28;20599;-72
2021/05/24 12:30:54;;;;;;;1.37;1.13;;;;;;;18.07;44.16;94836.44;6967029;28;20225;-72
2021/05/24 12:34:18;;;;;;;3.60;3.30;;;;;;;18.11;44.53;94835.03;6935582;28;20219;-72
2021/05/24 12:38:07;;;;;;;4.70;1.40;;;;;;;18.17;44.05;94836.13;6933878;28;20326;-71
2021/05/24 12:41:29;;;;;;;3.07;1.40;;;;;;;18.26;43.92;94834.97;6961108;28;20784;-72
2021/05/24 12:44:50;;;;;;;2.60;1.00;;;;;;;18.35;43.81;94845.41;6971209;28;20240;-72
2021/05/24 12:48:30;;;;;;;1.30;0.93;;;;;;;18.44;44.18;94841.56;6955039;28;20215;-72
2021/05/24 12:51:58;;;;;;;2.97;1.20;;;;;;;18.47;43.54;94834.09;6958144;28;20220;-73
2021/05/24 12:55:21;;;;;;;4.53;1.43;;;;;;;18.48;42.82;94831.22;6947553;28;20237;-72
2021/05/24 12:58:44;;;;;;;1.20;1.00;;;;;;;18.48;42.09;94831.22;6965962;28;20210;-72
2021/05/24 13:02:04;;;;;;;1.50;1.00;;;;;;;18.46;41.98;94838.66;6950329;28;20329;-72
2021/05/24 13:05:27;;;;;;;0.90;0.80;;;;;;;18.47;42.29;94829.56;6953906;28;20579;-72
2021/05/24 13:09:01;;;;;;;1.17;0.80;;;;;;;18.50;42.30;94829.19;6949259;28;20285;-72
2021/05/24 13:12:26;;;;;;;1.43;1.00;;;;;;;18.52;42.42;94827.13;6946198;28;20215;-73
2021/05/24 13:15:59;;;;;;;3.97;0.83;;;;;;;18.57;42.55;94821.19;6961926;28;20322;-72
2021/05/24 13:19:38;;;;;;;1.17;0.80;;;;;;;18.57;42.84;94827.41;6954645;28;20226;-72
2021/05/24 13:30:13;;;;;;;2.63;1.00;;;;;;;18.68;44.01;94831.41;6960756;28;20717;-72
2021/05/24 13:33:43;;;;;;;2.90;0.87;;;;;;;18.69;43.51;94842.00;6954594;28;20218;-72
2021/05/24 13:37:08;;;;;;;1.33;0.80;;;;;;;18.69;43.96;94833.91;6943344;28;20234;-72
2021/05/24 13:40:31;;;;;;;1.53;0.80;;;;;;;18.68;43.66;94836.78;6959915;28;20261;-71
2021/05/24 13:43:51;;;;;;;3.47;1.07;;;;;;;18.63;43.58;94841.94;6962444;28;20218;-72
2021/05/24 13:47:12;;;;;;;0.80;0.80;;;;;;;18.56;43.19;94841.06;6968883;28;20250;-71
2021/05/24 13:50:32;;;;;;;2.87;1.33;;;;;;;18.51;43.15;94844.28;6963095;28;20212;-72
2021/05/24 13:53:56;;;;;;;1.20;0.80;;;;;;;18.50;43.39;94844.50;6975652;28;20714;-72
2021/05/24 13:57:16;;;;;;;1.07;0.87;;;;;;;18.48;42.69;94841.16;6966729;28;20589;-72
2021/05/24 14:00:36;;;;;;;1.13;0.90;;;;;;;18.48;42.81;94846.53;6968502;28;20860;-72
2021/05/24 14:03:59;;;;;;;2.50;0.93;;;;;;;18.41;41.99;94859.91;6953576;28;20246;-72
2021/05/24 14:07:20;;;;;;;2.73;0.80;;;;;;;18.31;42.12;94857.53;6943246;28;20219;-72
2021/05/24 14:10:41;;;;;;;3.00;0.90;;;;;;;18.27;42.05;94858.97;6964123;28;20592;-73
2021/05/24 14:14:02;;;;;;;0.80;0.60;;;;;;;18.19;41.46;94856.41;6960134;28;20766;-72
2021/05/24 14:17:22;;;;;;;1.87;0.80;;;;;;;18.14;41.15;94858.84;6962099;28;20246;-72
2021/05/24 14:20:43;;;;;;;3.77;0.80;;;;;;;18.12;40.40;94866.25;6970614;28;20450;-72
2021/05/24 14:24:08;;;;;;;3.50;1.00;;;;;;;18.11;40.10;94869.16;6950089;28;20234;-72
2021/05/24 14:27:29;;;;;;;2.00;0.90;;;;;;;18.09;40.03;94866.66;6964022;28;20217;-71
2021/05/24 14:30:51;;;;;;;1.90;0.90;;;;;;;18.04;40.34;94885.19;6973505;28;20210;-72
2021/05/24 14:34:14;;;;;;;3.93;1.00;;;;;;;17.89;41.07;94887.94;6956364;28;20243;-73
2021/05/24 14:37:39;;;;;;;2.30;1.10;;;;;;;17.78;42.26;94868.78;6950987;28;20233;-72
2021/05/24 14:41:00;;;;;;;5.73;1.50;;;;;;;17.57;43.17;94888.34;6960707;28;20359;-72
2021/05/24 14:44:23;;;;;;;2.53;1.20;;;;;;;17.43;44.29;94911.50;6977661;28;20218;-73
2021/05/24 14:47:44;;;;;;;2.63;1.03;;;;;;;17.30;44.42;94931.97;6972878;28;20272;-73
2021/05/24 14:51:04;;;;;;;4.33;1.20;;;;;;;17.25;44.86;94929.00;6977043;28;20214;-72
2021/05/24 14:54:24;;;;;;;5.47;1.10;;;;;;;17.21;44.82;94935.72;6979532;28;20223;-71
2021/05/24 14:57:45;;;;;;;4.40;1.00;;;;;;;17.15;45.10;94932.75;6957524;28;20258;-72
2021/05/24 15:01:05;;;;;;;5.07;1.50;;;;;;;17.15;45.26;94946.19;6969164;28;20208;-72
2021/05/24 15:04:26;;;;;;;3.17;1.57;;;;;;;17.13;45.57;94955.44;6962635;28;20220;-72
2021/05/24 15:07:48;;;;;;;3.17;0.83;;;;;;;17.10;45.48;94945.91;6949635;28;21234;-71
2021/05/24 15:11:09;;;;;;;2.50;1.20;;;;;;;17.05;45.78;94939.44;6957197;28;20212;-72
2021/05/24 15:14:33;;;;;;;2.10;1.23;;;;;;;17.01;45.91;94943.47;6962336;28;20264;-72
2021/05/24 15:17:56;;;;;;;6.23;1.30;;;;;;;16.84;46.66;94933.94;6961393;28;20230;-74
2021/05/24 15:21:18;;;;;;;3.23;1.13;;;;;;;16.85;47.37;94932.94;6955086;28;20892;-72
2021/05/24 15:24:45;;;;;;;3.23;1.20;;;;;;;16.88;47.44;94938.75;6963117;28;20226;-72
2021/05/24 15:28:08;;;;;;;2.87;1.50;;;;;;;16.92;47.11;94940.06;6959739;28;20214;-72
2021/05/24 15:31:29;;;;;;;2.90;1.17;;;;;;;16.90;46.77;94947.44;6968503;28;20773;-71
2021/05/24 15:34:52;;;;;;;3.23;1.57;;;;;;;16.96;46.90;94949.41;6955065;28;20754;-73
2021/05/24 15:38:14;;;;;;;4.00;1.03;;;;;;;16.97;46.94;94960.97;6953529;28;20254;-72
2021/05/24 15:41:36;;;;;;;2.83;1.13;;;;;;;17.00;47.19;94957.94;6944353;28;20708;-72
2021/05/24 15:44:56;;;;;;;3.03;1.10;;;;;;;17.01;46.70;94960.41;6970330;28;20696;-72
2021/05/24 15:48:19;;;;;;;2.20;1.60;;;;;;;17.07;46.79;94954.31;6973224;28;20765;-73
2021/05/24 15:51:42;;;;;;;1.90;1.00;;;;;;;17.10;46.13;94961.19;6969903;28;20211;-71
2021/05/24 15:55:06;;;;;;;2.93;1.00;;;;;;;17.10;45.95;94955.81;6954909;28;20242;-73
2021/05/24 15:58:28;;;;;;;2.10;1.33;;;;;;;17.08;46.52;94964.03;6974315;28;20302;-73
2021/05/24 16:01:49;;;;;;;2.53;1.00;;;;;;;17.06;46.14;94965.22;6945797;28;20219;-72
2021/05/24 16:05:12;;;;;;;2.03;1.17;;;;;;;17.08;46.63;94969.41;6958514;28;20302;-72
2021/05/24 16:08:32;;;;;;;3.00;1.07;;;;;;;17.04;46.51;94962.75;6948465;28;20280;-72